Plano's Hourly Summary for Thursday, July 5, 2018
Hour Temp
(f)
RH
(%)
Solar Rad.
(MJ/m2)
Rainfall
(in)
Wind
(mph)
7/5/2018 12:00 AM 80 63 0 0 3.24
7/5/2018 1:00 AM 78 65 0 0 2.7
7/5/2018 2:00 AM 77 69 0 0 0.38
7/5/2018 3:00 AM 76 73 0 0 0.08
7/5/2018 4:00 AM 75 75 0 0 0
7/5/2018 5:00 AM 74 77 0 0 0
7/5/2018 6:00 AM 75 78 0 0 0
7/5/2018 7:00 AM 74 79 0.02 0 0
7/5/2018 8:00 AM 75 72 0.27 0 0
7/5/2018 9:00 AM 79 61 1.01 0 0.33
7/5/2018 10:00 AM 82 56 1.67 0 1.06
7/5/2018 11:00 AM 86 49 2.27 0 0.7
7/5/2018 12:00 PM 88 47 2.46 0 0.94
7/5/2018 1:00 PM 92 42 2.98 0 0.99
7/5/2018 2:00 PM 94 39 3.2 0 1.64
7/5/2018 3:00 PM 95 38 2.71 0 1.35
7/5/2018 4:00 PM 95 38 1.73 0 0.83
7/5/2018 5:00 PM 96 35 1.59 0 0.76
7/5/2018 6:00 PM 97 34 1.72 0 1.03
7/5/2018 7:00 PM 95 36 0.72 0 1.21
7/5/2018 8:00 PM 92 43 0.25 0 0.95
7/5/2018 9:00 PM 89 46 0.06 0 1.49
7/5/2018 10:00 PM 87 54 0 0 1.58
7/5/2018 11:00 PM 85 56 0 0 1.3
Data Summary 84 55 22.66 0.00 0.94